This is the latest recevied weather packets stored in our database for station/object KH2PM. If no packets are shown the sender has not sent any weather packets the latest 10 day(s).
| Time | Temp. | Humidity | Pressure | Rain* | Wind** | Luminosity | Snow |
|---|---|---|---|---|---|---|---|
| 1777549504 | 15° C | 94% | 1010.5 hPa | 0 mm | - | - | - |
| 1777547404 | 15.56° C | 95% | 1010 hPa | 0.25 mm | - | - | - |
| 1777545305 | 15.56° C | 94% | 1009.8 hPa | 0.25 mm | - | - | - |
| 1777544704 | 15.56° C | 94% | 1009.5 hPa | 0 mm | - | - | - |
| 1777542304 | 16.67° C | 94% | 1009.5 hPa | 0 mm | - | - | - |
| 1777542004 | 16.67° C | 94% | 1009.6 hPa | 0 mm | - | - | - |
| 1777539305 | 16.67° C | 95% | 1009.4 hPa | 0 mm | - | - | - |
| 1777538405 | 16.67° C | 95% | 1009.3 hPa | 0 mm | - | - | - |
| 1777536304 | 16.67° C | 94% | 1009 hPa | 0 mm | - | - | - |
| 1777535704 | 16.67° C | 94% | 1008.7 hPa | 0 mm | - | - | - |
| 1777534204 | 16.67° C | 94% | 1008.8 hPa | 0 mm | - | - | - |
| 1777530005 | 17.22° C | 94% | 1009.4 hPa | 0 mm | - | - | - |
| 1777526404 | 17.78° C | 92% | 1009.7 hPa | 0.25 mm | - | - | - |
| 1777525806 | 17.78° C | 92% | 1010 hPa | 1.02 mm | - | - | - |
| 1777525505 | 18.33° C | 92% | 1009.9 hPa | 2.54 mm | - | - | - |
| 1777525206 | 18.33° C | 92% | 1010 hPa | 3.05 mm | - | - | - |
| 1777524009 | 18.33° C | 92% | 1009.8 hPa | 3.05 mm | - | - | - |
| 1777522504 | 18.89° C | 89% | 1009.6 hPa | 2.54 mm | - | - | - |
| 1777517104 | 18.89° C | 86% | 1008.6 hPa | 0 mm | - | - | - |
| 1777514705 | 19.44° C | 83% | 1008.5 hPa | 0 mm | - | - | - |
| 1777507204 | 22.78° C | 74% | 1008 hPa | 0 mm | - | - | - |
| 1777506604 | 23.33° C | 73% | 1007.9 hPa | 0 mm | - | - | - |
| 1777503304 | 24.44° C | 65% | 1007.9 hPa | 0 mm | - | - | - |
| 1777503009 | 24.44° C | 66% | 1008 hPa | 0 mm | - | - | - |
| 1777502704 | 25° C | 64% | 1008.1 hPa | 0 mm | - | - | - |
* Rain latest hour (hover to see other rain measurements)
** Current wind speed in m/s (hover to see current wind gust speed)